Franklin, West Virginia
Current Conditions -  °F | °C
As of 2:55 PM on Sunday 23 Nov 2014 (Local Time) from KW99 Reporting Station
Clear Clear  
Wind Chill: 17°   Ceiling: Unl
Heat Index: 17°   Visibility: 10mi
Dew Point:   Wind: 10mph
Humidity: 39%   Direction: 200°SSW
Pressure: 30"   Gusts: 16mph
Location:  38.64°N, 79.33°W
Report Text: KW99 231955Z AUTO 20009G14KT 10SM CLR 17/03 A3000 RMK AO2 T01700030
Loading
Personal Weather Stations






























Interactive Weather Map New forecast layout! Learn more

10-Day Weather Forecast

Advertisements
Track Severe Weather on mobile